sensor_id;sensor_type;location;lat;lon;timestamp;pressure;altitude;pressure_sealevel;temperature;humidity
20105;BME280;10212;42.714;23.310;2022-09-13T00:03:56;95028.22;;;13.97;75.35
20105;BME280;10212;42.714;23.310;2022-09-13T00:23:33;95005.94;;;14.31;74.42
20105;BME280;10212;42.714;23.310;2022-09-13T00:28:34;95002.41;;;14.25;74.56
20105;BME280;10212;42.714;23.310;2022-09-13T00:33:35;94998.38;;;14.22;74.49
20105;BME280;10212;42.714;23.310;2022-09-13T00:38:39;94994.84;;;14.17;75.24
20105;BME280;10212;42.714;23.310;2022-09-13T00:43:52;94993.97;;;14.11;75.51
20105;BME280;10212;42.714;23.310;2022-09-13T00:48:58;94999.56;;;14.15;75.53
20105;BME280;10212;42.714;23.310;2022-09-13T00:54:01;94996.59;;;14.11;75.85
20105;BME280;10212;42.714;23.310;2022-09-13T00:59:12;94988.47;;;14.13;76.02
20105;BME280;10212;42.714;23.310;2022-09-13T01:04:16;94984.94;;;14.19;75.78
20105;BME280;10212;42.714;23.310;2022-09-13T01:09:18;94988.81;;;14.16;75.82
20105;BME280;10212;42.714;23.310;2022-09-13T01:14:19;94994.75;;;14.23;75.50
20105;BME280;10212;42.714;23.310;2022-09-13T01:19:19;94986.31;;;14.21;75.66
20105;BME280;10212;42.714;23.310;2022-09-13T01:24:39;94981.63;;;14.11;76.37
20105;BME280;10212;42.714;23.310;2022-09-13T01:35:29;94982.31;;;14.19;76.01
20105;BME280;10212;42.714;23.310;2022-09-13T01:46:17;94977.06;;;14.07;76.65
20105;BME280;10212;42.714;23.310;2022-09-13T01:51:32;94971.94;;;14.00;76.98
20105;BME280;10212;42.714;23.310;2022-09-13T01:56:52;94975.91;;;14.03;77.23
20105;BME280;10212;42.714;23.310;2022-09-13T02:02:19;94968.75;;;13.98;77.19
20105;BME280;10212;42.714;23.310;2022-09-13T02:07:30;94970.69;;;13.91;77.68
20105;BME280;10212;42.714;23.310;2022-09-13T02:12:35;94963.03;;;13.89;77.58
20105;BME280;10212;42.714;23.310;2022-09-13T02:17:41;94966.66;;;13.76;78.08
20105;BME280;10212;42.714;23.310;2022-09-13T02:22:46;94970.63;;;13.55;79.00
20105;BME280;10212;42.714;23.310;2022-09-13T02:27:50;94971.03;;;13.51;79.16
20105;BME280;10212;42.714;23.310;2022-09-13T02:33:01;94968.38;;;13.58;78.82
20105;BME280;10212;42.714;23.310;2022-09-13T02:38:07;94969.88;;;13.35;80.23
20105;BME280;10212;42.714;23.310;2022-09-13T02:43:17;94973.41;;;13.41;79.97
20105;BME280;10212;42.714;23.310;2022-09-13T02:48:39;94969.88;;;13.35;79.97
20105;BME280;10212;42.714;23.310;2022-09-13T02:59:12;94961.53;;;13.26;80.84
20105;BME280;10212;42.714;23.310;2022-09-13T03:04:14;94966.06;;;13.19;81.00
20105;BME280;10212;42.714;23.310;2022-09-13T03:09:15;94976.41;;;13.14;81.50
20105;BME280;10212;42.714;23.310;2022-09-13T03:25:19;94972.16;;;13.13;80.53
20105;BME280;10212;42.714;23.310;2022-09-13T03:30:23;94961.25;;;13.16;80.36
20105;BME280;10212;42.714;23.310;2022-09-13T03:41:08;94970.94;;;13.16;80.22
20105;BME280;10212;42.714;23.310;2022-09-13T03:46:31;94971.09;;;13.02;80.76
20105;BME280;10212;42.714;23.310;2022-09-13T03:51:32;94977.31;;;12.89;81.80
20105;BME280;10212;42.714;23.310;2022-09-13T03:56:34;94980.94;;;12.88;81.44
20105;BME280;10212;42.714;23.310;2022-09-13T04:01:35;94990.63;;;12.87;81.46
20105;BME280;10212;42.714;23.310;2022-09-13T04:06:36;94983.28;;;12.77;81.90
20105;BME280;10212;42.714;23.310;2022-09-13T04:11:36;94987.50;;;12.78;81.74
20105;BME280;10212;42.714;23.310;2022-09-13T04:16:37;94984.00;;;12.85;81.25
20105;BME280;10212;42.714;23.310;2022-09-13T04:21:38;94987.06;;;12.82;81.36
20105;BME280;10212;42.714;23.310;2022-09-13T04:26:38;94991.13;;;12.77;81.08
20105;BME280;10212;42.714;23.310;2022-09-13T04:31:38;95003.75;;;12.81;81.28
20105;BME280;10212;42.714;23.310;2022-09-13T04:36:39;94998.25;;;12.70;81.50
20105;BME280;10212;42.714;23.310;2022-09-13T04:41:41;95005.34;;;12.63;81.65
20105;BME280;10212;42.714;23.310;2022-09-13T04:46:46;95008.56;;;12.65;81.34
20105;BME280;10212;42.714;23.310;2022-09-13T04:51:48;95007.34;;;12.68;81.41
20105;BME280;10212;42.714;23.310;2022-09-13T04:56:49;95006.44;;;12.74;80.92
20105;BME280;10212;42.714;23.310;2022-09-13T05:01:49;95013.38;;;12.68;80.84
20105;BME280;10212;42.714;23.310;2022-09-13T05:06:50;95015.47;;;12.78;80.17
20105;BME280;10212;42.714;23.310;2022-09-13T05:11:50;95011.47;;;12.94;79.21
20105;BME280;10212;42.714;23.310;2022-09-13T05:16:50;95012.47;;;13.12;78.28
20105;BME280;10212;42.714;23.310;2022-09-13T05:21:51;95012.56;;;13.36;77.96
20105;BME280;10212;42.714;23.310;2022-09-13T05:26:51;95012.09;;;13.58;76.65
20105;BME280;10212;42.714;23.310;2022-09-13T05:31:52;95014.97;;;13.68;75.14
20105;BME280;10212;42.714;23.310;2022-09-13T05:36:52;95012.97;;;13.94;74.89
20105;BME280;10212;42.714;23.310;2022-09-13T05:41:53;95016.84;;;14.04;74.29
20105;BME280;10212;42.714;23.310;2022-09-13T05:46:54;95018.91;;;14.02;75.05
20105;BME280;10212;42.714;23.310;2022-09-13T05:51:54;95017.16;;;13.83;76.63
20105;BME280;10212;42.714;23.310;2022-09-13T05:56:54;95017.50;;;13.87;76.88
20105;BME280;10212;42.714;23.310;2022-09-13T06:01:57;95016.16;;;13.96;76.42
20105;BME280;10212;42.714;23.310;2022-09-13T06:06:57;95015.69;;;13.99;74.96
20105;BME280;10212;42.714;23.310;2022-09-13T06:11:58;95015.94;;;13.98;75.53
20105;BME280;10212;42.714;23.310;2022-09-13T06:16:58;95022.81;;;14.11;75.09
20105;BME280;10212;42.714;23.310;2022-09-13T06:21:59;95027.34;;;14.16;74.97
20105;BME280;10212;42.714;23.310;2022-09-13T06:26:59;95028.28;;;14.21;73.27
20105;BME280;10212;42.714;23.310;2022-09-13T06:32:00;95026.22;;;14.23;74.07
20105;BME280;10212;42.714;23.310;2022-09-13T06:37:01;95032.59;;;14.28;74.07
20105;BME280;10212;42.714;23.310;2022-09-13T06:42:02;95033.41;;;14.28;74.36
20105;BME280;10212;42.714;23.310;2022-09-13T06:47:02;95040.94;;;14.37;74.15
20105;BME280;10212;42.714;23.310;2022-09-13T06:52:03;95046.31;;;14.54;74.71
20105;BME280;10212;42.714;23.310;2022-09-13T06:57:04;95048.47;;;14.45;72.18
20105;BME280;10212;42.714;23.310;2022-09-13T07:02:04;95053.59;;;14.52;72.15
20105;BME280;10212;42.714;23.310;2022-09-13T07:07:05;95055.53;;;14.56;72.27
20105;BME280;10212;42.714;23.310;2022-09-13T07:12:05;95054.16;;;14.78;71.81
20105;BME280;10212;42.714;23.310;2022-09-13T07:17:06;95062.25;;;14.88;71.50
20105;BME280;10212;42.714;23.310;2022-09-13T07:22:07;95054.03;;;14.97;70.31
20105;BME280;10212;42.714;23.310;2022-09-13T07:27:07;95058.69;;;15.06;70.61
20105;BME280;10212;42.714;23.310;2022-09-13T07:32:08;95062.78;;;15.26;68.69
20105;BME280;10212;42.714;23.310;2022-09-13T07:37:08;95055.66;;;15.27;68.82
20105;BME280;10212;42.714;23.310;2022-09-13T07:42:08;95062.53;;;15.57;67.62
20105;BME280;10212;42.714;23.310;2022-09-13T07:47:09;95065.81;;;15.64;66.81
20105;BME280;10212;42.714;23.310;2022-09-13T07:52:10;95067.03;;;15.74;65.31
20105;BME280;10212;42.714;23.310;2022-09-13T07:57:10;95074.72;;;15.93;63.99
20105;BME280;10212;42.714;23.310;2022-09-13T08:02:11;95069.66;;;16.03;62.45
20105;BME280;10212;42.714;23.310;2022-09-13T08:07:12;95067.41;;;16.29;60.79
20105;BME280;10212;42.714;23.310;2022-09-13T08:12:13;95066.63;;;16.46;59.72
20105;BME280;10212;42.714;23.310;2022-09-13T08:17:13;95065.00;;;16.62;59.57
20105;BME280;10212;42.714;23.310;2022-09-13T08:22:14;95060.22;;;16.76;56.64
20105;BME280;10212;42.714;23.310;2022-09-13T08:27:15;95052.63;;;16.80;57.56
20105;BME280;10212;42.714;23.310;2022-09-13T08:32:15;95047.41;;;16.85;56.36
20105;BME280;10212;42.714;23.310;2022-09-13T08:37:15;95059.72;;;16.79;55.04
20105;BME280;10212;42.714;23.310;2022-09-13T08:42:57;95054.81;;;16.88;53.95
20105;BME280;10212;42.714;23.310;2022-09-13T08:47:51;95047.16;;;17.26;53.65
20105;BME280;10212;42.714;23.310;2022-09-13T08:53:19;95047.56;;;17.18;52.91
20105;BME280;10212;42.714;23.310;2022-09-13T09:09:05;95039.91;;;17.66;49.70
20105;BME280;10212;42.714;23.310;2022-09-13T09:14:15;95042.50;;;17.61;50.29
20105;BME280;10212;42.714;23.310;2022-09-13T09:19:33;95054.88;;;17.60;51.05
20105;BME280;10212;42.714;23.310;2022-09-13T09:24:36;95036.63;;;17.81;50.66
20105;BME280;10212;42.714;23.310;2022-09-13T09:29:38;95032.59;;;18.06;48.24
20105;BME280;10212;42.714;23.310;2022-09-13T09:40:04;95017.00;;;18.81;46.78
20105;BME280;10212;42.714;23.310;2022-09-13T09:45:26;95021.00;;;18.89;46.57
20105;BME280;10212;42.714;23.310;2022-09-13T09:50:31;95013.22;;;18.66;48.05
20105;BME280;10212;42.714;23.310;2022-09-13T09:55:43;94999.88;;;18.40;48.22
20105;BME280;10212;42.714;23.310;2022-09-13T10:00:56;94987.09;;;18.22;48.54
20105;BME280;10212;42.714;23.310;2022-09-13T10:06:32;94990.56;;;18.27;47.91
20105;BME280;10212;42.714;23.310;2022-09-13T10:11:54;94986.88;;;18.28;48.12
20105;BME280;10212;42.714;23.310;2022-09-13T10:17:17;94987.81;;;18.50;47.35
20105;BME280;10212;42.714;23.310;2022-09-13T10:22:20;94978.53;;;18.47;47.85
20105;BME280;10212;42.714;23.310;2022-09-13T10:27:42;94986.09;;;18.76;47.01
20105;BME280;10212;42.714;23.310;2022-09-13T10:32:54;94976.91;;;19.05;45.80
20105;BME280;10212;42.714;23.310;2022-09-13T10:37:55;94979.31;;;19.07;45.77
20105;BME280;10212;42.714;23.310;2022-09-13T10:42:57;94969.88;;;19.32;44.99
20105;BME280;10212;42.714;23.310;2022-09-13T10:48:04;94965.66;;;19.31;43.93
20105;BME280;10212;42.714;23.310;2022-09-13T10:53:34;94948.78;;;19.42;44.08
20105;BME280;10212;42.714;23.310;2022-09-13T10:58:36;94956.72;;;19.58;43.40
20105;BME280;10212;42.714;23.310;2022-09-13T11:04:02;94946.91;;;19.63;42.84
20105;BME280;10212;42.714;23.310;2022-09-13T11:09:18;94945.06;;;19.74;40.97
20105;BME280;10212;42.714;23.310;2022-09-13T11:14:38;94939.25;;;19.67;42.54
20105;BME280;10212;42.714;23.310;2022-09-13T11:20:37;94944.28;;;20.16;40.73
20105;BME280;10212;42.714;23.310;2022-09-13T11:30:23;94925.50;;;19.96;41.14
20105;BME280;10212;42.714;23.310;2022-09-13T11:46:29;94924.44;;;19.50;41.51
20105;BME280;10212;42.714;23.310;2022-09-13T11:51:49;94928.13;;;19.49;41.32
20105;BME280;10212;42.714;23.310;2022-09-13T11:57:05;94926.28;;;19.92;41.02
20105;BME280;10212;42.714;23.310;2022-09-13T12:02:26;94929.19;;;19.95;40.82
20105;BME280;10212;42.714;23.310;2022-09-13T12:07:30;94922.31;;;19.99;40.92
20105;BME280;10212;42.714;23.310;2022-09-13T12:12:34;94917.00;;;20.20;40.43
20105;BME280;10212;42.714;23.310;2022-09-13T12:17:42;94910.59;;;20.42;39.48
20105;BME280;10212;42.714;23.310;2022-09-13T12:22:44;94908.88;;;20.72;38.67
20105;BME280;10212;42.714;23.310;2022-09-13T12:28:02;94908.94;;;20.62;39.64
20105;BME280;10212;42.714;23.310;2022-09-13T12:33:06;94914.06;;;20.93;38.08
20105;BME280;10212;42.714;23.310;2022-09-13T12:43:36;94920.19;;;20.94;38.09
20105;BME280;10212;42.714;23.310;2022-09-13T12:59:38;94914.59;;;20.24;39.96
20105;BME280;10212;42.714;23.310;2022-09-13T13:04:42;94914.91;;;20.02;40.31
20105;BME280;10212;42.714;23.310;2022-09-13T13:09:51;94922.28;;;20.15;39.55
20105;BME280;10212;42.714;23.310;2022-09-13T13:14:53;94903.72;;;20.36;39.61
20105;BME280;10212;42.714;23.310;2022-09-13T13:19:53;94921.84;;;20.74;39.46
20105;BME280;10212;42.714;23.310;2022-09-13T13:24:54;94919.59;;;20.46;41.00
20105;BME280;10212;42.714;23.310;2022-09-13T13:35:32;94927.09;;;19.66;40.17
20105;BME280;10212;42.714;23.310;2022-09-13T13:40:33;94921.50;;;19.94;41.43
20105;BME280;10212;42.714;23.310;2022-09-13T13:45:33;94922.53;;;20.24;40.92
20105;BME280;10212;42.714;23.310;2022-09-13T13:50:35;94927.75;;;20.50;40.35
20105;BME280;10212;42.714;23.310;2022-09-13T14:01:56;94922.66;;;20.64;39.67
20105;BME280;10212;42.714;23.310;2022-09-13T14:07:09;94926.22;;;21.10;39.56
20105;BME280;10212;42.714;23.310;2022-09-13T14:12:15;94924.63;;;21.09;37.92
20105;BME280;10212;42.714;23.310;2022-09-13T14:22:38;94934.31;;;20.68;38.31
20105;BME280;10212;42.714;23.310;2022-09-13T14:27:40;94930.50;;;21.01;38.56
20105;BME280;10212;42.714;23.310;2022-09-13T14:32:43;94939.03;;;20.82;39.79
20105;BME280;10212;42.714;23.310;2022-09-13T14:37:44;94944.59;;;20.80;38.38
20105;BME280;10212;42.714;23.310;2022-09-13T14:42:47;94930.63;;;20.64;38.01
20105;BME280;10212;42.714;23.310;2022-09-13T14:47:57;94942.38;;;20.32;38.22
20105;BME280;10212;42.714;23.310;2022-09-13T14:52:59;94935.69;;;20.50;38.04
20105;BME280;10212;42.714;23.310;2022-09-13T14:58:03;94933.09;;;20.34;38.91
20105;BME280;10212;42.714;23.310;2022-09-13T15:03:12;94937.63;;;20.39;38.47
20105;BME280;10212;42.714;23.310;2022-09-13T15:08:46;94964.59;;;20.41;38.29
20105;BME280;10212;42.714;23.310;2022-09-13T15:14:44;94949.28;;;20.22;38.75
20105;BME280;10212;42.714;23.310;2022-09-13T15:24:29;94949.28;;;20.02;39.70
20105;BME280;10212;42.714;23.310;2022-09-13T15:29:31;94947.22;;;19.83;41.12
20105;BME280;10212;42.714;23.310;2022-09-13T15:34:44;94944.00;;;19.91;41.08
20105;BME280;10212;42.714;23.310;2022-09-13T15:40:01;94940.56;;;19.96;41.17
20105;BME280;10212;42.714;23.310;2022-09-13T15:45:02;94948.78;;;19.73;40.45
20105;BME280;10212;42.714;23.310;2022-09-13T15:50:02;94958.81;;;19.66;40.64
20105;BME280;10212;42.714;23.310;2022-09-13T15:55:03;94965.97;;;19.71;40.26
20105;BME280;10212;42.714;23.310;2022-09-13T16:00:05;94966.75;;;19.56;40.54
20105;BME280;10212;42.714;23.310;2022-09-13T16:05:06;94977.88;;;19.47;41.27
20105;BME280;10212;42.714;23.310;2022-09-13T16:10:21;94970.41;;;19.28;42.15
20105;BME280;10212;42.714;23.310;2022-09-13T16:15:21;94979.66;;;19.21;42.47
20105;BME280;10212;42.714;23.310;2022-09-13T16:20:22;94978.50;;;18.96;43.49
20105;BME280;10212;42.714;23.310;2022-09-13T16:25:23;94967.91;;;18.85;43.53
20105;BME280;10212;42.714;23.310;2022-09-13T16:30:23;94982.63;;;18.71;43.56
20105;BME280;10212;42.714;23.310;2022-09-13T16:35:28;94981.78;;;18.60;44.05
20105;BME280;10212;42.714;23.310;2022-09-13T16:40:30;94996.25;;;18.52;44.23
20105;BME280;10212;42.714;23.310;2022-09-13T16:45:30;94992.78;;;18.46;44.55
20105;BME280;10212;42.714;23.310;2022-09-13T16:50:30;94995.41;;;18.41;45.17
20105;BME280;10212;42.714;23.310;2022-09-13T16:55:31;94995.28;;;18.20;46.15
20105;BME280;10212;42.714;23.310;2022-09-13T17:00:31;95008.41;;;18.15;46.95
20105;BME280;10212;42.714;23.310;2022-09-13T17:05:32;95012.22;;;17.96;48.09
20105;BME280;10212;42.714;23.310;2022-09-13T17:10:32;95019.81;;;17.88;48.08
20105;BME280;10212;42.714;23.310;2022-09-13T17:15:37;95024.47;;;17.80;48.88
20105;BME280;10212;42.714;23.310;2022-09-13T17:20:45;95034.84;;;17.59;49.82
20105;BME280;10212;42.714;23.310;2022-09-13T17:25:47;95039.50;;;17.52;50.17
20105;BME280;10212;42.714;23.310;2022-09-13T17:30:48;95041.00;;;17.43;50.48
20105;BME280;10212;42.714;23.310;2022-09-13T17:36:00;95035.97;;;17.41;50.82
20105;BME280;10212;42.714;23.310;2022-09-13T17:41:07;95042.09;;;17.24;52.14
20105;BME280;10212;42.714;23.310;2022-09-13T17:46:19;95047.16;;;17.09;52.79
20105;BME280;10212;42.714;23.310;2022-09-13T17:51:25;95061.09;;;17.04;53.19
20105;BME280;10212;42.714;23.310;2022-09-13T17:56:26;95055.56;;;17.06;53.33
20105;BME280;10212;42.714;23.310;2022-09-13T18:01:29;95062.41;;;16.84;54.37
20105;BME280;10212;42.714;23.310;2022-09-13T18:06:30;95077.25;;;16.91;53.80
20105;BME280;10212;42.714;23.310;2022-09-13T18:11:31;95061.97;;;16.93;54.10
20105;BME280;10212;42.714;23.310;2022-09-13T18:16:31;95070.56;;;16.83;54.09
20105;BME280;10212;42.714;23.310;2022-09-13T18:21:32;95062.84;;;16.76;54.23
20105;BME280;10212;42.714;23.310;2022-09-13T18:26:33;95072.31;;;16.77;54.39
20105;BME280;10212;42.714;23.310;2022-09-13T18:31:35;95077.31;;;16.56;57.01
20105;BME280;10212;42.714;23.310;2022-09-13T18:36:35;95080.34;;;16.48;57.56
20105;BME280;10212;42.714;23.310;2022-09-13T18:41:38;95081.69;;;16.33;58.03
20105;BME280;10212;42.714;23.310;2022-09-13T18:46:41;95084.50;;;16.09;59.21
20105;BME280;10212;42.714;23.310;2022-09-13T18:51:43;95099.25;;;15.81;59.85
20105;BME280;10212;42.714;23.310;2022-09-13T18:56:44;95091.16;;;15.71;60.59
20105;BME280;10212;42.714;23.310;2022-09-13T19:01:45;95098.31;;;15.58;61.30
20105;BME280;10212;42.714;23.310;2022-09-13T19:06:52;95097.84;;;15.61;61.19
20105;BME280;10212;42.714;23.310;2022-09-13T19:11:53;95099.03;;;15.71;60.91
20105;BME280;10212;42.714;23.310;2022-09-13T19:16:56;95102.22;;;15.73;60.71
20105;BME280;10212;42.714;23.310;2022-09-13T19:21:57;95102.63;;;15.64;61.23
20105;BME280;10212;42.714;23.310;2022-09-13T19:26:59;95095.16;;;15.73;59.38
20105;BME280;10212;42.714;23.310;2022-09-13T19:32:01;95098.50;;;15.69;60.31
20105;BME280;10212;42.714;23.310;2022-09-13T19:37:02;95100.66;;;15.72;59.67
20105;BME280;10212;42.714;23.310;2022-09-13T19:42:02;95112.19;;;15.71;60.26
20105;BME280;10212;42.714;23.310;2022-09-13T19:47:03;95098.66;;;15.50;60.43
20105;BME280;10212;42.714;23.310;2022-09-13T19:52:05;95112.66;;;15.38;60.19
20105;BME280;10212;42.714;23.310;2022-09-13T19:57:05;95116.38;;;15.42;60.82
20105;BME280;10212;42.714;23.310;2022-09-13T20:02:09;95113.56;;;15.32;62.44
20105;BME280;10212;42.714;23.310;2022-09-13T20:07:10;95108.34;;;15.08;63.60
20105;BME280;10212;42.714;23.310;2022-09-13T20:12:12;95106.41;;;14.79;65.23
20105;BME280;10212;42.714;23.310;2022-09-13T20:17:13;95106.19;;;14.57;67.10
20105;BME280;10212;42.714;23.310;2022-09-13T20:22:13;95110.16;;;14.47;67.19
20105;BME280;10212;42.714;23.310;2022-09-13T20:27:14;95112.19;;;14.21;68.17
20105;BME280;10212;42.714;23.310;2022-09-13T20:32:15;95113.97;;;14.09;68.53
20105;BME280;10212;42.714;23.310;2022-09-13T20:37:16;95119.00;;;14.10;67.89
20105;BME280;10212;42.714;23.310;2022-09-13T20:42:17;95120.25;;;14.08;68.01
20105;BME280;10212;42.714;23.310;2022-09-13T20:47:17;95120.75;;;13.86;70.09
20105;BME280;10212;42.714;23.310;2022-09-13T20:52:17;95119.63;;;13.94;69.87
20105;BME280;10212;42.714;23.310;2022-09-13T20:57:18;95125.47;;;13.65;71.76
20105;BME280;10212;42.714;23.310;2022-09-13T21:02:18;95133.47;;;13.70;69.76
20105;BME280;10212;42.714;23.310;2022-09-13T21:07:19;95132.81;;;13.87;70.78
20105;BME280;10212;42.714;23.310;2022-09-13T21:12:38;95135.06;;;13.71;69.87
20105;BME280;10212;42.714;23.310;2022-09-13T21:17:38;95142.91;;;13.71;71.08
20105;BME280;10212;42.714;23.310;2022-09-13T21:22:39;95140.47;;;13.58;70.36
20105;BME280;10212;42.714;23.310;2022-09-13T21:27:44;95138.06;;;13.56;70.38
20105;BME280;10212;42.714;23.310;2022-09-13T21:32:45;95146.41;;;13.27;71.93
20105;BME280;10212;42.714;23.310;2022-09-13T21:38:04;95149.69;;;13.23;71.16
20105;BME280;10212;42.714;23.310;2022-09-13T21:43:04;95135.22;;;13.20;70.19
20105;BME280;10212;42.714;23.310;2022-09-13T21:48:05;95140.53;;;13.13;72.95
20105;BME280;10212;42.714;23.310;2022-09-13T21:53:06;95128.81;;;13.16;72.03
20105;BME280;10212;42.714;23.310;2022-09-13T21:58:09;95124.31;;;13.05;72.83
20105;BME280;10212;42.714;23.310;2022-09-13T22:03:10;95128.34;;;12.82;72.88
20105;BME280;10212;42.714;23.310;2022-09-13T22:08:10;95121.72;;;12.79;72.57
20105;BME280;10212;42.714;23.310;2022-09-13T22:13:11;95125.28;;;12.66;73.60
20105;BME280;10212;42.714;23.310;2022-09-13T22:18:12;95125.22;;;12.73;74.18
20105;BME280;10212;42.714;23.310;2022-09-13T22:23:12;95133.75;;;12.61;74.35
20105;BME280;10212;42.714;23.310;2022-09-13T22:28:12;95128.03;;;12.71;74.32
20105;BME280;10212;42.714;23.310;2022-09-13T22:33:13;95127.66;;;12.42;75.00
20105;BME280;10212;42.714;23.310;2022-09-13T22:38:14;95129.00;;;12.26;74.58
20105;BME280;10212;42.714;23.310;2022-09-13T22:43:15;95138.34;;;12.15;76.38
20105;BME280;10212;42.714;23.310;2022-09-13T22:48:17;95135.28;;;12.18;77.03
20105;BME280;10212;42.714;23.310;2022-09-13T22:53:19;95136.88;;;12.19;77.62
20105;BME280;10212;42.714;23.310;2022-09-13T22:58:20;95138.41;;;12.34;76.33
20105;BME280;10212;42.714;23.310;2022-09-13T23:03:20;95135.25;;;11.86;78.10
20105;BME280;10212;42.714;23.310;2022-09-13T23:08:21;95133.78;;;11.97;78.23
20105;BME280;10212;42.714;23.310;2022-09-13T23:13:21;95135.16;;;12.06;78.17
20105;BME280;10212;42.714;23.310;2022-09-13T23:18:22;95129.78;;;11.94;78.14
20105;BME280;10212;42.714;23.310;2022-09-13T23:23:22;95130.41;;;11.89;77.63
20105;BME280;10212;42.714;23.310;2022-09-13T23:28:23;95137.91;;;11.79;78.16
20105;BME280;10212;42.714;23.310;2022-09-13T23:33:24;95140.41;;;11.60;79.57
20105;BME280;10212;42.714;23.310;2022-09-13T23:38:25;95145.22;;;11.63;78.50
20105;BME280;10212;42.714;23.310;2022-09-13T23:43:27;95143.97;;;11.73;77.59
20105;BME280;10212;42.714;23.310;2022-09-13T23:48:27;95143.22;;;11.58;79.62
20105;BME280;10212;42.714;23.310;2022-09-13T23:53:29;95139.63;;;11.53;78.99
20105;BME280;10212;42.714;23.310;2022-09-13T23:58:30;95136.41;;;11.97;79.83
